Time;durP1;ratioP1;P1;durP2;ratioP2;P2;SDS_P1;SDS_P2;PMS_P1;PMS_P2;Temp;Humidity;BMP_temperature;BMP_pressure;BME280_temperature;BME280_humidity;BME280_pressure;Samples;Min_cycle;Max_cycle;Signal;HPM_P1;HPM_P2
2022/04/04 00:00:07;;;;;;;10.32;9.20;;;;;;;;;;5019753;28;20578;-65
2022/04/04 00:02:33;;;;;;;11.48;9.70;;;;;;;;;;5020059;28;20037;-64
2022/04/04 00:04:58;;;;;;;10.20;9.10;;;;;;;;;;5026025;28;20573;-65
2022/04/04 00:07:25;;;;;;;11.05;9.13;;;;;;;;;;5020768;28;20045;-65
2022/04/04 00:09:51;;;;;;;14.00;9.45;;;;;;;;;;5016899;28;20068;-65
2022/04/04 00:12:17;;;;;;;12.70;9.90;;;;;;;;;;5014266;28;20517;-65
2022/04/04 00:14:43;;;;;;;14.38;9.55;;;;;;;;;;5020001;28;20152;-65
2022/04/04 00:17:10;;;;;;;11.60;8.85;;;;;;;;;;5021908;28;20121;-65
2022/04/04 00:19:36;;;;;;;12.10;9.25;;;;;;;;;;5027874;28;20037;-65
2022/04/04 00:22:02;;;;;;;13.32;9.32;;;;;;;;;;5019286;28;20040;-65
2022/04/04 00:24:27;;;;;;;10.55;9.43;;;;;;;;;;5022610;28;20034;-65
2022/04/04 00:26:53;;;;;;;12.48;10.30;;;;;;;;;;5016453;28;20100;-66
2022/04/04 00:29:19;;;;;;;11.13;9.52;;;;;;;;;;5015097;28;20034;-65
2022/04/04 00:31:45;;;;;;;12.07;10.38;;;;;;;;;;5017299;28;20367;-65
2022/04/04 00:34:11;;;;;;;13.02;10.32;;;;;;;;;;5019781;28;20033;-65
2022/04/04 00:36:38;;;;;;;11.43;9.95;;;;;;;;;;5022531;28;20108;-65
2022/04/04 00:39:03;;;;;;;15.13;10.32;;;;;;;;;;5019646;28;20101;-65
2022/04/04 00:41:29;;;;;;;14.00;10.05;;;;;;;;;;5016280;28;20502;-65
2022/04/04 00:43:55;;;;;;;12.18;10.00;;;;;;;;;;5022379;28;20164;-65
2022/04/04 00:46:20;;;;;;;12.52;9.68;;;;;;;;;;5015118;28;20029;-66
2022/04/04 00:48:46;;;;;;;13.23;9.93;;;;;;;;;;5012001;28;20400;-66
2022/04/04 00:51:12;;;;;;;11.48;9.75;;;;;;;;;;5013277;28;20041;-63
2022/04/04 00:53:39;;;;;;;11.35;9.55;;;;;;;;;;5023039;28;20037;-65
2022/04/04 00:56:05;;;;;;;13.15;9.88;;;;;;;;;;5019789;28;20123;-65
2022/04/04 00:58:30;;;;;;;13.52;10.15;;;;;;;;;;5019873;28;20034;-65
2022/04/04 01:00:58;;;;;;;14.88;9.75;;;;;;;;;;5013386;28;20048;-65
2022/04/04 01:03:24;;;;;;;12.77;9.70;;;;;;;;;;5015620;28;20028;-65
2022/04/04 01:05:50;;;;;;;12.10;9.85;;;;;;;;;;5018903;28;20056;-65
2022/04/04 01:08:16;;;;;;;10.63;9.52;;;;;;;;;;5030352;28;20486;-65
2022/04/04 01:10:43;;;;;;;13.57;9.80;;;;;;;;;;5029135;28;20453;-65
2022/04/04 01:13:10;;;;;;;11.43;10.23;;;;;;;;;;5022403;28;20029;-65
2022/04/04 01:15:37;;;;;;;13.27;9.80;;;;;;;;;;5019007;28;20141;-66
2022/04/04 01:18:07;;;;;;;10.57;9.00;;;;;;;;;;5021580;28;20065;-65
2022/04/04 01:20:33;;;;;;;12.25;10.25;;;;;;;;;;5021011;28;20064;-65
2022/04/04 01:22:59;;;;;;;15.18;10.38;;;;;;;;;;5017846;28;20553;-66
2022/04/04 01:25:29;;;;;;;17.02;11.07;;;;;;;;;;5024207;28;20033;-66
2022/04/04 01:27:55;;;;;;;12.88;10.43;;;;;;;;;;5022240;28;20063;-65
2022/04/04 01:30:22;;;;;;;13.20;10.60;;;;;;;;;;5016286;28;20394;-66
2022/04/04 01:32:49;;;;;;;14.82;10.18;;;;;;;;;;5016584;28;20509;-66
2022/04/04 01:35:19;;;;;;;13.85;10.18;;;;;;;;;;5020946;28;20044;-66
2022/04/04 01:37:46;;;;;;;11.27;10.05;;;;;;;;;;5024030;28;20079;-65
2022/04/04 01:40:12;;;;;;;10.40;9.25;;;;;;;;;;5023916;28;20112;-66
2022/04/04 01:42:39;;;;;;;11.05;9.80;;;;;;;;;;5020819;28;20435;-65
2022/04/04 01:45:07;;;;;;;13.23;9.45;;;;;;;;;;5025806;28;20034;-65
2022/04/04 01:47:33;;;;;;;12.73;9.50;;;;;;;;;;5021510;28;20033;-66
2022/04/04 01:49:59;;;;;;;11.00;9.80;;;;;;;;;;5023346;28;20500;-66
2022/04/04 01:52:25;;;;;;;11.02;9.55;;;;;;;;;;5022723;28;20112;-66
2022/04/04 01:54:51;;;;;;;12.60;9.57;;;;;;;;;;5017470;28;20105;-66
2022/04/04 01:57:17;;;;;;;12.38;10.38;;;;;;;;;;5024621;28;20532;-65
2022/04/04 01:59:43;;;;;;;12.05;10.10;;;;;;;;;;5021797;28;20021;-66
2022/04/04 02:02:09;;;;;;;14.40;10.13;;;;;;;;;;5026742;28;20057;-66
2022/04/04 02:04:35;;;;;;;10.60;9.50;;;;;;;;;;5023470;28;20558;-66
2022/04/04 02:07:02;;;;;;;12.35;9.88;;;;;;;;;;5023451;28;20479;-65
2022/04/04 02:09:28;;;;;;;12.93;9.60;;;;;;;;;;5025416;28;20031;-66
2022/04/04 02:11:53;;;;;;;16.20;9.77;;;;;;;;;;5023570;28;20029;-65
2022/04/04 02:14:19;;;;;;;12.57;9.73;;;;;;;;;;5017600;28;20026;-66
2022/04/04 02:16:45;;;;;;;10.85;9.73;;;;;;;;;;5022321;28;20017;-66
2022/04/04 02:19:11;;;;;;;10.75;9.30;;;;;;;;;;5023525;28;20037;-66
2022/04/04 02:21:37;;;;;;;12.75;9.30;;;;;;;;;;5015528;28;20029;-66
2022/04/04 02:24:04;;;;;;;12.13;9.77;;;;;;;;;;5025384;28;20060;-66
2022/04/04 02:26:30;;;;;;;10.43;9.30;;;;;;;;;;5020426;28;20262;-66
2022/04/04 02:28:55;;;;;;;10.77;9.45;;;;;;;;;;5028866;28;20096;-66
2022/04/04 02:31:21;;;;;;;10.70;9.38;;;;;;;;;;5019680;28;20112;-66
2022/04/04 02:33:47;;;;;;;9.95;8.90;;;;;;;;;;5021357;28;20091;-66
2022/04/04 02:36:13;;;;;;;10.45;9.35;;;;;;;;;;5019549;28;20037;-66
2022/04/04 02:38:39;;;;;;;11.05;9.18;;;;;;;;;;5023308;28;20038;-66
2022/04/04 02:41:05;;;;;;;10.40;9.32;;;;;;;;;;5017446;28;20033;-65
2022/04/04 02:43:31;;;;;;;10.10;9.05;;;;;;;;;;5025723;28;20102;-66
2022/04/04 02:45:57;;;;;;;10.45;8.48;;;;;;;;;;5026421;28;20032;-66
2022/04/04 02:48:23;;;;;;;9.63;8.25;;;;;;;;;;5023611;28;20030;-66
2022/04/04 02:50:48;;;;;;;13.23;9.25;;;;;;;;;;5026153;28;20025;-66
2022/04/04 02:53:14;;;;;;;9.55;8.55;;;;;;;;;;5022857;28;20088;-66
2022/04/04 02:58:25;;;;;;;10.05;8.68;;;;;;;;;;5022717;28;20032;-66
2022/04/04 03:00:50;;;;;;;12.52;8.30;;;;;;;;;;5017662;28;20025;-65
2022/04/04 03:03:17;;;;;;;10.52;9.15;;;;;;;;;;5023371;28;20033;-66
2022/04/04 03:05:43;;;;;;;10.20;9.00;;;;;;;;;;5012016;28;20113;-66
2022/04/04 03:08:09;;;;;;;11.77;8.98;;;;;;;;;;5026391;28;20474;-67
2022/04/04 03:10:36;;;;;;;11.93;8.57;;;;;;;;;;5024391;28;20033;-65
2022/04/04 03:13:05;;;;;;;10.18;8.43;;;;;;;;;;5021204;28;20520;-66
2022/04/04 03:15:34;;;;;;;12.55;9.32;;;;;;;;;;5020911;28;20037;-66
2022/04/04 03:17:59;;;;;;;9.60;8.60;;;;;;;;;;5022319;28;20048;-66
2022/04/04 03:20:26;;;;;;;11.77;8.48;;;;;;;;;;5024119;28;20033;-66
2022/04/04 03:22:55;;;;;;;10.82;8.93;;;;;;;;;;5020547;28;20483;-66
2022/04/04 03:25:21;;;;;;;11.57;9.10;;;;;;;;;;5024071;28;20388;-66
2022/04/04 03:27:48;;;;;;;10.05;9.07;;;;;;;;;;5018305;28;20029;-65
2022/04/04 03:30:23;;;;;;;9.88;8.85;;;;;;;;;;5028956;28;20042;-66
2022/04/04 03:32:49;;;;;;;12.95;9.23;;;;;;;;;;5011911;28;20286;-66
2022/04/04 03:35:17;;;;;;;10.35;9.32;;;;;;;;;;5023071;28;20041;-66
2022/04/04 03:37:48;;;;;;;11.25;9.05;;;;;;;;;;5022136;28;20036;-66
2022/04/04 03:40:14;;;;;;;10.65;9.55;;;;;;;;;;5025946;28;20144;-66
2022/04/04 03:42:42;;;;;;;10.20;8.75;;;;;;;;;;5020091;28;20042;-66
2022/04/04 03:45:11;;;;;;;12.38;9.18;;;;;;;;;;5012142;28;20494;-65
2022/04/04 03:47:38;;;;;;;11.95;9.82;;;;;;;;;;5021385;28;20116;-66
2022/04/04 03:50:05;;;;;;;11.05;8.95;;;;;;;;;;5019781;28;20033;-66
2022/04/04 03:52:31;;;;;;;11.13;9.35;;;;;;;;;;5022699;28;20040;-66
2022/04/04 03:54:57;;;;;;;10.07;9.07;;;;;;;;;;5021328;28;20040;-66
2022/04/04 03:57:23;;;;;;;11.35;9.27;;;;;;;;;;5024815;28;20029;-66
2022/04/04 03:59:48;;;;;;;15.25;9.38;;;;;;;;;;5028422;28;20034;-66
2022/04/04 04:02:14;;;;;;;10.32;9.30;;;;;;;;;;5015213;28;20033;-65
2022/04/04 04:04:40;;;;;;;12.23;9.25;;;;;;;;;;5016927;28;20030;-66
2022/04/04 04:07:06;;;;;;;10.13;8.70;;;;;;;;;;5021999;28;20037;-65
2022/04/04 04:09:31;;;;;;;12.18;10.00;;;;;;;;;;5012921;28;20105;-66
2022/04/04 04:11:57;;;;;;;10.40;8.80;;;;;;;;;;5023027;28;20422;-66
2022/04/04 04:14:25;;;;;;;14.25;9.77;;;;;;;;;;5025677;28;20079;-66
2022/04/04 04:16:50;;;;;;;12.32;9.80;;;;;;;;;;5019239;28;20041;-65
2022/04/04 04:22:01;;;;;;;11.52;9.88;;;;;;;;;;5020261;28;20030;-66
2022/04/04 04:24:27;;;;;;;13.77;9.93;;;;;;;;;;5024524;28;20096;-65
2022/04/04 04:26:53;;;;;;;12.43;9.90;;;;;;;;;;5016941;28;20034;-66
2022/04/04 04:29:19;;;;;;;13.48;9.65;;;;;;;;;;5031592;28;20041;-65
2022/04/04 04:31:45;;;;;;;12.15;9.65;;;;;;;;;;5018148;28;20026;-65
2022/04/04 04:34:11;;;;;;;12.38;9.90;;;;;;;;;;5022468;28;20445;-66
2022/04/04 04:36:39;;;;;;;16.25;10.38;;;;;;;;;;5020310;28;20025;-66
2022/04/04 04:39:09;;;;;;;14.25;11.40;;;;;;;;;;5018949;28;20080;-65
2022/04/04 04:41:35;;;;;;;14.45;10.85;;;;;;;;;;5025181;28;20025;-66
2022/04/04 04:44:03;;;;;;;14.90;10.65;;;;;;;;;;5023588;28;20533;-66
2022/04/04 04:46:33;;;;;;;16.88;11.43;;;;;;;;;;5025083;28;20477;-65
2022/04/04 04:49:00;;;;;;;12.07;10.40;;;;;;;;;;5020211;28;20056;-66
2022/04/04 04:51:26;;;;;;;14.05;10.70;;;;;;;;;;5022729;28;20453;-66
2022/04/04 04:53:52;;;;;;;14.43;10.75;;;;;;;;;;5019880;28;20053;-66
2022/04/04 04:56:18;;;;;;;12.18;10.57;;;;;;;;;;5029099;28;20524;-66
2022/04/04 04:58:44;;;;;;;14.23;10.93;;;;;;;;;;5036976;28;20025;-66
2022/04/04 05:01:09;;;;;;;13.10;10.55;;;;;;;;;;5021211;28;20056;-65
2022/04/04 05:03:35;;;;;;;15.98;11.32;;;;;;;;;;5025425;28;20049;-66
2022/04/04 05:06:01;;;;;;;15.10;11.20;;;;;;;;;;5025019;28;20034;-66
2022/04/04 05:08:27;;;;;;;14.77;11.40;;;;;;;;;;5024705;28;20042;-66
2022/04/04 05:10:52;;;;;;;14.60;10.15;;;;;;;;;;5018641;28;20040;-65
2022/04/04 05:13:19;;;;;;;12.85;10.48;;;;;;;;;;5025895;28;20109;-67
2022/04/04 05:15:45;;;;;;;16.33;12.05;;;;;;;;;;5019781;28;20827;-67
2022/04/04 05:18:11;;;;;;;12.75;10.18;;;;;;;;;;5013074;28;20045;-67
2022/04/04 05:20:37;;;;;;;19.63;10.23;;;;;;;;;;5021909;28;20030;-67
2022/04/04 05:23:03;;;;;;;16.50;11.57;;;;;;;;;;5019895;28;20158;-67
2022/04/04 05:25:29;;;;;;;12.07;10.30;;;;;;;;;;5022585;28;20037;-66
2022/04/04 05:27:56;;;;;;;12.93;10.20;;;;;;;;;;5019405;28;20108;-66
2022/04/04 05:30:22;;;;;;;13.60;10.10;;;;;;;;;;5019241;28;20440;-66
2022/04/04 05:32:49;;;;;;;12.02;10.07;;;;;;;;;;5021950;28;20069;-65
2022/04/04 05:35:16;;;;;;;15.80;10.93;;;;;;;;;;5028206;28;20037;-65
2022/04/04 05:37:42;;;;;;;14.90;11.82;;;;;;;;;;5027726;28;20465;-66
2022/04/04 05:40:10;;;;;;;13.65;10.70;;;;;;;;;;5024754;28;20045;-65
2022/04/04 05:42:36;;;;;;;16.42;10.15;;;;;;;;;;5019897;28;20052;-65
2022/04/04 05:45:02;;;;;;;16.25;12.50;;;;;;;;;;5016133;28;20042;-66
2022/04/04 05:47:28;;;;;;;15.18;10.38;;;;;;;;;;5015740;28;20040;-66
2022/04/04 05:49:53;;;;;;;15.63;10.65;;;;;;;;;;5026358;28;20042;-65
2022/04/04 05:52:23;;;;;;;12.43;10.50;;;;;;;;;;5028811;28;20025;-66
2022/04/04 05:54:57;;;;;;;13.52;10.90;;;;;;;;;;5019564;28;20076;-66
2022/04/04 05:57:28;;;;;;;15.00;10.57;;;;;;;;;;5017611;28;20118;-67
2022/04/04 05:59:54;;;;;;;12.27;10.30;;;;;;;;;;5031913;28;20033;-65
2022/04/04 06:02:21;;;;;;;11.68;10.15;;;;;;;;;;5021268;28;20030;-66
2022/04/04 06:04:47;;;;;;;16.10;10.32;;;;;;;;;;5031410;28;20029;-66
2022/04/04 06:07:13;;;;;;;12.80;10.40;;;;;;;;;;5030476;28;20454;-65
2022/04/04 06:09:39;;;;;;;15.70;10.50;;;;;;;;;;5026692;28;20076;-66
2022/04/04 06:12:05;;;;;;;16.10;11.85;;;;;;;;;;5021903;28;20121;-67
2022/04/04 06:14:30;;;;;;;14.70;10.77;;;;;;;;;;5034574;28;20034;-66
2022/04/04 06:16:56;;;;;;;15.10;11.55;;;;;;;;;;5021183;28;20076;-66
2022/04/04 06:19:22;;;;;;;19.88;12.57;;;;;;;;;;5020990;28;20017;-67
2022/04/04 06:21:48;;;;;;;17.50;12.10;;;;;;;;;;5019379;28;20060;-67
2022/04/04 06:24:13;;;;;;;21.30;14.15;;;;;;;;;;5016660;28;20787;-66
2022/04/04 06:26:39;;;;;;;23.50;16.23;;;;;;;;;;5022032;28;20026;-67
2022/04/04 06:29:09;;;;;;;24.00;16.98;;;;;;;;;;5030120;28;20029;-66
2022/04/04 06:31:38;;;;;;;27.50;17.40;;;;;;;;;;5015152;28;20481;-66
2022/04/04 06:34:05;;;;;;;21.92;15.20;;;;;;;;;;5024182;28;20033;-67
2022/04/04 06:36:31;;;;;;;16.23;11.85;;;;;;;;;;5015945;28;20033;-67
2022/04/04 06:38:58;;;;;;;15.52;12.40;;;;;;;;;;5024877;28;20042;-67
2022/04/04 06:41:24;;;;;;;16.65;11.57;;;;;;;;;;5019923;28;20037;-67
2022/04/04 06:43:50;;;;;;;12.88;10.13;;;;;;;;;;5017954;28;20467;-67
2022/04/04 06:46:17;;;;;;;13.82;10.80;;;;;;;;;;5022487;28;20061;-67
2022/04/04 06:48:45;;;;;;;13.32;9.25;;;;;;;;;;5019631;28;20037;-67
2022/04/04 06:51:11;;;;;;;14.93;10.02;;;;;;;;;;5021334;28;20041;-67
2022/04/04 06:53:38;;;;;;;12.85;9.98;;;;;;;;;;5024042;28;20112;-67
2022/04/04 06:56:04;;;;;;;13.20;10.10;;;;;;;;;;5016937;28;20033;-66
2022/04/04 06:58:30;;;;;;;12.57;9.93;;;;;;;;;;5017001;28;20509;-67
2022/04/04 07:00:55;;;;;;;14.23;9.25;;;;;;;;;;5012443;28;20030;-67
2022/04/04 07:03:21;;;;;;;11.23;9.18;;;;;;;;;;5017040;28;20034;-66
2022/04/04 07:05:47;;;;;;;10.77;8.73;;;;;;;;;;5025853;28;20501;-67
2022/04/04 07:08:13;;;;;;;10.73;9.00;;;;;;;;;;5031560;28;20129;-67
2022/04/04 07:10:38;;;;;;;9.63;8.63;;;;;;;;;;5029032;28;20389;-66
2022/04/04 07:13:05;;;;;;;12.23;9.20;;;;;;;;;;5017931;28;20080;-67
2022/04/04 07:15:31;;;;;;;13.30;9.63;;;;;;;;;;5026032;28;20041;-67
2022/04/04 07:17:57;;;;;;;14.80;8.63;;;;;;;;;;5022285;28;20042;-67
2022/04/04 07:20:23;;;;;;;10.85;7.63;;;;;;;;;;5026604;28;20092;-67
2022/04/04 07:22:48;;;;;;;10.30;8.55;;;;;;;;;;5020693;28;20494;-67
2022/04/04 07:25:14;;;;;;;11.23;8.07;;;;;;;;;;5019395;28;20042;-67
2022/04/04 07:27:43;;;;;;;9.57;8.13;;;;;;;;;;5016957;28;20535;-67
2022/04/04 07:30:11;;;;;;;8.57;7.55;;;;;;;;;;5013359;28;20093;-67
2022/04/04 07:32:38;;;;;;;9.48;7.50;;;;;;;;;;5018579;28;20491;-67
2022/04/04 07:35:06;;;;;;;10.95;7.25;;;;;;;;;;5022767;28;20052;-67
2022/04/04 07:37:31;;;;;;;9.63;7.18;;;;;;;;;;5017819;28;20096;-67
2022/04/04 07:39:58;;;;;;;7.45;6.75;;;;;;;;;;5018395;28;20429;-67
2022/04/04 07:42:23;;;;;;;8.30;6.90;;;;;;;;;;5013310;28;20052;-67
2022/04/04 07:44:49;;;;;;;8.30;6.70;;;;;;;;;;5018426;28;20386;-67
2022/04/04 07:47:15;;;;;;;8.73;7.07;;;;;;;;;;5026123;28;20033;-67
2022/04/04 07:49:40;;;;;;;10.50;7.18;;;;;;;;;;5030999;28;20397;-67
2022/04/04 07:52:06;;;;;;;7.28;6.57;;;;;;;;;;5017271;28;20080;-67
2022/04/04 07:54:32;;;;;;;9.55;6.15;;;;;;;;;;5023836;28;20047;-67
2022/04/04 07:56:58;;;;;;;8.00;7.20;;;;;;;;;;5016392;28;20092;-67
2022/04/04 07:59:24;;;;;;;8.52;7.18;;;;;;;;;;5027693;28;20037;-67
2022/04/04 08:01:50;;;;;;;11.18;7.72;;;;;;;;;;5021104;28;20030;-67
2022/04/04 08:04:17;;;;;;;12.80;7.72;;;;;;;;;;5013439;28;20033;-67
2022/04/04 08:06:43;;;;;;;8.60;7.10;;;;;;;;;;5016949;28;20052;-67
2022/04/04 08:09:09;;;;;;;9.30;7.15;;;;;;;;;;5021426;28;20037;-67
2022/04/04 08:11:35;;;;;;;15.75;7.53;;;;;;;;;;5025877;28;20043;-68
2022/04/04 08:14:00;;;;;;;9.23;7.20;;;;;;;;;;5021732;28;20603;-68
2022/04/04 08:16:26;;;;;;;10.80;7.00;;;;;;;;;;5020885;28;20038;-68
2022/04/04 08:18:53;;;;;;;11.23;6.60;;;;;;;;;;5024381;28;20036;-68
2022/04/04 08:21:19;;;;;;;8.77;7.03;;;;;;;;;;5015083;28;20046;-68
2022/04/04 08:23:45;;;;;;;7.93;6.72;;;;;;;;;;5016021;28;20036;-67
2022/04/04 08:26:10;;;;;;;9.13;5.70;;;;;;;;;;5020887;28;23320;-68
2022/04/04 08:28:37;;;;;;;7.93;6.22;;;;;;;;;;5017784;28;20022;-68
2022/04/04 08:31:03;;;;;;;12.88;6.10;;;;;;;;;;5020477;28;20032;-68
2022/04/04 08:33:29;;;;;;;6.35;5.35;;;;;;;;;;5020627;28;20571;-68
2022/04/04 08:35:56;;;;;;;9.48;5.10;;;;;;;;;;5013345;28;20113;-68
2022/04/04 08:38:22;;;;;;;5.45;4.95;;;;;;;;;;5020706;28;20057;-68
2022/04/04 08:40:49;;;;;;;6.22;4.93;;;;;;;;;;5023309;28;20041;-68
2022/04/04 08:43:17;;;;;;;8.57;5.68;;;;;;;;;;5022657;28;20057;-68
2022/04/04 08:45:44;;;;;;;11.40;5.80;;;;;;;;;;5021689;28;20035;-68
2022/04/04 08:48:11;;;;;;;7.78;6.43;;;;;;;;;;5020052;28;20037;-68
2022/04/04 08:50:39;;;;;;;13.48;7.18;;;;;;;;;;5022605;28;20056;-68
2022/04/04 08:53:05;;;;;;;11.70;7.53;;;;;;;;;;5022671;28;20042;-68
2022/04/04 08:55:31;;;;;;;8.70;7.15;;;;;;;;;;5021219;28;20076;-68
2022/04/04 08:57:58;;;;;;;10.73;7.18;;;;;;;;;;5010629;28;20033;-68
2022/04/04 09:00:24;;;;;;;8.57;6.82;;;;;;;;;;5017123;28;20041;-68
2022/04/04 09:03:20;;;;;;;9.05;6.18;;;;;;;;;;5025079;28;20072;-67
2022/04/04 09:05:51;;;;;;;11.30;6.78;;;;;;;;;;5038216;28;20125;-68
2022/04/04 09:08:18;;;;;;;6.38;5.53;;;;;;;;;;5017435;28;20113;-68
2022/04/04 09:10:44;;;;;;;7.80;6.10;;;;;;;;;;5024904;28;20076;-69
2022/04/04 09:13:12;;;;;;;8.15;6.40;;;;;;;;;;5022698;28;20033;-68
2022/04/04 09:16:01;;;;;;;8.65;6.50;;;;;;;;;;5021686;28;20030;-69
2022/04/04 09:18:36;;;;;;;7.65;6.43;;;;;;;;;;5013701;28;20486;-68
2022/04/04 09:21:04;;;;;;;7.82;5.20;;;;;;;;;;5014305;28;20038;-68
2022/04/04 09:23:57;;;;;;;9.18;5.88;;;;;;;;;;5020527;28;20505;-69
2022/04/04 09:26:37;;;;;;;6.95;5.60;;;;;;;;;;5022773;28;20220;-68
2022/04/04 09:29:09;;;;;;;7.70;5.88;;;;;;;;;;5017780;28;20034;-68
2022/04/04 09:31:35;;;;;;;6.50;5.90;;;;;;;;;;5022232;28;20087;-68
2022/04/04 09:34:04;;;;;;;15.45;5.65;;;;;;;;;;5024064;28;20305;-68
2022/04/04 09:36:31;;;;;;;6.95;5.18;;;;;;;;;;5019107;28;20083;-68
2022/04/04 09:39:00;;;;;;;6.30;5.03;;;;;;;;;;5029966;28;20573;-68
2022/04/04 09:41:27;;;;;;;11.25;5.22;;;;;;;;;;5028483;28;20033;-68
2022/04/04 09:44:05;;;;;;;8.07;4.50;;;;;;;;;;5024185;28;20029;-64
2022/04/04 09:46:35;;;;;;;4.68;4.18;;;;;;;;;;5018972;28;20029;-68
2022/04/04 09:49:04;;;;;;;6.22;4.32;;;;;;;;;;5022543;28;20036;-68
2022/04/04 09:51:41;;;;;;;7.70;5.03;;;;;;;;;;5018073;28;20393;-69
2022/04/04 09:54:10;;;;;;;7.80;5.30;;;;;;;;;;5030637;28;20022;-68
2022/04/04 09:56:36;;;;;;;5.05;3.97;;;;;;;;;;5022734;28;20060;-68
2022/04/04 09:59:02;;;;;;;6.10;4.50;;;;;;;;;;5016925;28;20069;-68
2022/04/04 10:01:31;;;;;;;7.85;4.28;;;;;;;;;;5020433;28;20017;-68
2022/04/04 10:03:57;;;;;;;8.25;5.40;;;;;;;;;;5019538;28;20494;-68
2022/04/04 10:06:28;;;;;;;5.45;3.50;;;;;;;;;;5024180;28;20041;-69
2022/04/04 10:08:59;;;;;;;5.07;4.20;;;;;;;;;;5018810;28;20040;-68
2022/04/04 10:11:26;;;;;;;5.82;4.40;;;;;;;;;;5023953;28;20030;-68
2022/04/04 10:13:53;;;;;;;5.45;4.88;;;;;;;;;;5022772;28;20482;-68
2022/04/04 10:16:22;;;;;;;7.05;5.20;;;;;;;;;;5023799;28;20043;-69
2022/04/04 10:18:49;;;;;;;24.92;12.98;;;;;;;;;;5017837;28;20026;-69
2022/04/04 10:21:15;;;;;;;10.20;6.35;;;;;;;;;;5015049;28;20061;-68
2022/04/04 10:23:43;;;;;;;4.80;4.40;;;;;;;;;;5027859;28;20069;-68
2022/04/04 10:26:11;;;;;;;8.10;5.28;;;;;;;;;;5030164;28;20064;-68
2022/04/04 10:28:38;;;;;;;5.85;4.35;;;;;;;;;;5023442;28;20037;-69
2022/04/04 10:31:28;;;;;;;6.47;5.03;;;;;;;;;;5021757;28;20398;-68
2022/04/04 10:34:09;;;;;;;8.73;4.45;;;;;;;;;;5015353;28;20372;-69
2022/04/04 10:36:34;;;;;;;5.20;4.50;;;;;;;;;;5011224;28;20425;-68
2022/04/04 10:39:00;;;;;;;4.18;3.58;;;;;;;;;;5021087;28;20026;-68
2022/04/04 10:41:28;;;;;;;7.57;4.30;;;;;;;;;;5026366;28;20052;-68
2022/04/04 10:43:56;;;;;;;5.28;4.47;;;;;;;;;;5030918;28;20037;-68
2022/04/04 10:46:24;;;;;;;4.72;4.10;;;;;;;;;;5022438;28;20025;-68
2022/04/04 10:49:02;;;;;;;12.05;4.07;;;;;;;;;;5020753;28;20056;-69
2022/04/04 10:51:30;;;;;;;4.68;4.18;;;;;;;;;;5015254;28;20061;-69
2022/04/04 10:54:00;;;;;;;5.85;4.18;;;;;;;;;;5020010;28;20075;-69
2022/04/04 10:56:28;;;;;;;5.75;3.85;;;;;;;;;;5030855;28;20084;-69
2022/04/04 10:59:23;;;;;;;7.40;4.35;;;;;;;;;;5021078;28;20430;-68
2022/04/04 11:01:58;;;;;;;4.82;3.35;;;;;;;;;;5013370;28;20038;-69
2022/04/04 11:04:29;;;;;;;5.95;4.07;;;;;;;;;;5024506;28;20358;-69
2022/04/04 11:09:55;;;;;;;4.00;3.38;;;;;;;;;;5021831;28;20074;-69
2022/04/04 11:12:23;;;;;;;4.18;3.47;;;;;;;;;;5019302;28;20119;-69
2022/04/04 11:14:57;;;;;;;4.90;3.42;;;;;;;;;;5014313;28;20116;-69
2022/04/04 11:17:30;;;;;;;4.07;3.67;;;;;;;;;;5029171;28;20394;-68
2022/04/04 11:20:21;;;;;;;5.57;3.60;;;;;;;;;;5026599;28;20030;-69
2022/04/04 11:22:52;;;;;;;5.50;4.00;;;;;;;;;;5026968;28;20477;-68
2022/04/04 11:25:20;;;;;;;16.20;3.83;;;;;;;;;;5021010;28;20111;-69
2022/04/04 11:27:50;;;;;;;7.22;3.65;;;;;;;;;;5018649;28;20035;-69
2022/04/04 11:30:20;;;;;;;10.85;3.03;;;;;;;;;;5013405;28;20030;-69
2022/04/04 11:32:49;;;;;;;4.60;3.97;;;;;;;;;;5022453;28;20034;-69
2022/04/04 11:35:20;;;;;;;3.88;3.47;;;;;;;;;;5022937;28;20069;-69
2022/04/04 11:37:48;;;;;;;6.68;3.17;;;;;;;;;;5020804;28;20033;-69
2022/04/04 11:40:19;;;;;;;3.40;3.10;;;;;;;;;;5024677;28;20032;-69
2022/04/04 11:42:49;;;;;;;3.78;3.08;;;;;;;;;;5023527;28;20037;-68
2022/04/04 11:45:18;;;;;;;7.18;5.53;;;;;;;;;;5020072;28;20080;-69
2022/04/04 11:48:01;;;;;;;7.00;3.40;;;;;;;;;;5012839;28;20087;-69
2022/04/04 11:50:30;;;;;;;4.88;3.08;;;;;;;;;;5025157;28;20552;-69
2022/04/04 11:53:02;;;;;;;3.25;2.97;;;;;;;;;;5023897;28;20425;-69
2022/04/04 11:55:31;;;;;;;7.68;4.68;;;;;;;;;;5025422;28;20056;-69
2022/04/04 11:58:00;;;;;;;3.95;3.55;;;;;;;;;;5014362;28;20026;-69
2022/04/04 12:00:30;;;;;;;4.13;3.00;;;;;;;;;;5024311;28;20052;-69
2022/04/04 12:03:01;;;;;;;3.22;2.90;;;;;;;;;;5022374;28;20025;-69
2022/04/04 12:05:28;;;;;;;6.70;3.17;;;;;;;;;;5019797;28;20382;-69
2022/04/04 12:07:54;;;;;;;8.07;3.88;;;;;;;;;;5018325;28;21718;-67
2022/04/04 12:10:24;;;;;;;7.00;3.80;;;;;;;;;;5014795;28;20031;-69
2022/04/04 12:12:58;;;;;;;10.30;3.40;;;;;;;;;;5022627;28;20025;-69
2022/04/04 12:15:32;;;;;;;3.78;3.38;;;;;;;;;;5011702;28;20030;-69
2022/04/04 12:17:58;;;;;;;3.83;3.50;;;;;;;;;;5018310;28;20080;-69
2022/04/04 12:20:24;;;;;;;3.60;3.30;;;;;;;;;;5013586;28;20398;-69
2022/04/04 12:25:36;;;;;;;7.65;3.10;;;;;;;;;;5018647;28;20060;-69
2022/04/04 12:28:02;;;;;;;4.38;3.90;;;;;;;;;;5020077;28;20033;-69
2022/04/04 12:30:37;;;;;;;3.17;2.97;;;;;;;;;;5013472;28;20486;-69
2022/04/04 12:33:14;;;;;;;4.60;3.25;;;;;;;;;;5019741;28;20029;-69
2022/04/04 12:35:41;;;;;;;6.65;3.33;;;;;;;;;;5020401;28;20629;-69
2022/04/04 12:38:08;;;;;;;4.30;3.30;;;;;;;;;;5023459;28;20482;-69
2022/04/04 12:40:34;;;;;;;3.22;2.90;;;;;;;;;;5019632;28;20481;-69
2022/04/04 12:43:08;;;;;;;4.78;3.33;;;;;;;;;;5024047;28;20049;-70
2022/04/04 12:45:34;;;;;;;3.15;2.85;;;;;;;;;;5023164;28;20086;-69
2022/04/04 12:48:07;;;;;;;3.40;3.10;;;;;;;;;;5025114;28;20079;-70
2022/04/04 12:50:51;;;;;;;2.85;2.60;;;;;;;;;;5027844;28;20083;-69
2022/04/04 12:53:19;;;;;;;3.03;2.72;;;;;;;;;;5017059;28;20120;-69
2022/04/04 12:56:08;;;;;;;4.10;2.80;;;;;;;;;;5017573;28;20033;-69
2022/04/04 12:58:34;;;;;;;5.35;3.08;;;;;;;;;;5024042;28;20074;-68
2022/04/04 13:01:15;;;;;;;8.90;3.42;;;;;;;;;;5019520;28;20033;-69
2022/04/04 13:03:52;;;;;;;6.53;2.95;;;;;;;;;;5020268;28;20029;-70
2022/04/04 13:06:19;;;;;;;4.35;3.88;;;;;;;;;;5019644;28;20036;-69
2022/04/04 13:08:55;;;;;;;4.53;3.50;;;;;;;;;;5022755;28;20030;-69
2022/04/04 13:11:22;;;;;;;4.05;3.10;;;;;;;;;;5022604;28;20056;-69
2022/04/04 13:14:05;;;;;;;4.40;3.05;;;;;;;;;;5017604;28;20026;-69
2022/04/04 13:16:35;;;;;;;3.85;3.33;;;;;;;;;;5018512;28;20022;-69
2022/04/04 13:19:02;;;;;;;7.15;3.10;;;;;;;;;;5022229;28;20044;-70
2022/04/04 13:21:28;;;;;;;4.15;3.15;;;;;;;;;;5030087;28;20049;-69
2022/04/04 13:23:54;;;;;;;3.08;2.75;;;;;;;;;;5026154;28;20047;-67
2022/04/04 13:26:20;;;;;;;3.20;2.90;;;;;;;;;;5024559;28;20038;-69
2022/04/04 13:28:45;;;;;;;3.13;2.78;;;;;;;;;;5022152;28;20064;-69
2022/04/04 13:31:11;;;;;;;5.90;3.10;;;;;;;;;;5015543;28;20038;-69
2022/04/04 13:33:37;;;;;;;6.78;3.22;;;;;;;;;;5020396;28;20364;-69
2022/04/04 13:36:04;;;;;;;3.28;2.85;;;;;;;;;;5021779;28;20454;-69
2022/04/04 13:38:31;;;;;;;3.92;3.05;;;;;;;;;;5021790;28;20025;-69
2022/04/04 13:40:57;;;;;;;6.70;3.10;;;;;;;;;;5025423;28;20038;-69
2022/04/04 13:43:26;;;;;;;3.45;3.15;;;;;;;;;;5028506;28;20051;-70
2022/04/04 13:45:53;;;;;;;6.43;2.90;;;;;;;;;;5019929;28;20029;-69
2022/04/04 13:48:18;;;;;;;5.10;3.75;;;;;;;;;;5015324;28;20060;-69
2022/04/04 13:50:44;;;;;;;4.38;3.00;;;;;;;;;;5029977;28;20073;-69
2022/04/04 13:53:10;;;;;;;5.95;2.80;;;;;;;;;;5025898;28;20026;-69
2022/04/04 13:55:36;;;;;;;10.25;5.45;;;;;;;;;;5023585;28;20095;-69
2022/04/04 13:58:03;;;;;;;4.50;3.40;;;;;;;;;;5022759;28;20033;-70
2022/04/04 14:00:29;;;;;;;6.40;3.60;;;;;;;;;;5014422;28;20061;-69
2022/04/04 14:02:54;;;;;;;6.05;2.70;;;;;;;;;;5025628;28;20045;-69
2022/04/04 14:05:20;;;;;;;5.75;3.03;;;;;;;;;;5024136;28;20033;-69
2022/04/04 14:07:47;;;;;;;3.42;2.83;;;;;;;;;;5017375;28;20061;-69
2022/04/04 14:10:12;;;;;;;8.40;2.92;;;;;;;;;;5019640;28;20035;-69
2022/04/04 14:12:39;;;;;;;3.90;3.05;;;;;;;;;;5017645;28;20462;-69
2022/04/04 14:15:06;;;;;;;3.33;3.05;;;;;;;;;;5013662;28;20030;-69
2022/04/04 14:17:35;;;;;;;5.43;3.72;;;;;;;;;;5022653;28;20025;-69
2022/04/04 14:20:06;;;;;;;4.53;3.25;;;;;;;;;;5025651;28;20022;-69
2022/04/04 14:22:33;;;;;;;7.40;3.72;;;;;;;;;;5029776;28;20573;-70
2022/04/04 14:25:00;;;;;;;3.45;3.13;;;;;;;;;;5022811;28;20069;-70
2022/04/04 14:27:26;;;;;;;4.00;3.38;;;;;;;;;;5012474;28;20060;-69
2022/04/04 14:29:54;;;;;;;11.48;3.88;;;;;;;;;;5014409;28;20040;-70
2022/04/04 14:32:21;;;;;;;4.15;3.80;;;;;;;;;;5027689;28;20033;-70
2022/04/04 14:34:48;;;;;;;5.53;3.70;;;;;;;;;;5026140;28;20026;-69
2022/04/04 14:37:14;;;;;;;4.57;3.83;;;;;;;;;;5026812;28;20029;-70
2022/04/04 14:39:40;;;;;;;8.00;3.42;;;;;;;;;;5024349;28;20052;-69
2022/04/04 14:42:08;;;;;;;4.88;3.00;;;;;;;;;;5022259;28;20048;-70
2022/04/04 14:44:34;;;;;;;3.50;3.00;;;;;;;;;;5030356;28;20022;-69
2022/04/04 14:47:00;;;;;;;2.85;2.60;;;;;;;;;;5021803;28;20045;-69